Time,TemperatureF,DewpointF,PressureIn,WindDirection,WindDirectionDegrees,WindSpeedMPH,WindSpeedGustMPH,Humidity,HourlyPrecipIn,Conditions,Clouds,dailyrainin,SoftwareType,DateUTC
2013-01-30 00:08:00,3.0,-6.0,30.48,WNW,283,1.0,4.0,66,0.00,,,0.00,weatherlink.com 1.10,2013-01-30 07:08:00,
2013-01-30 00:23:00,3.2,-6.0,30.48,West,272,3.0,5.0,67,0.00,,,0.00,weatherlink.com 1.10,2013-01-30 07:23:00,
2013-01-30 00:38:00,3.5,-5.0,30.46,West,281,0.0,4.0,67,0.00,,,0.00,weatherlink.com 1.10,2013-01-30 07:38:00,
2013-01-30 00:53:00,5.6,-4.0,30.46,WSW,244,4.0,4.0,64,0.00,,,0.00,weatherlink.com 1.10,2013-01-30 07:53:00,
2013-01-30 01:09:00,6.3,-3.0,30.44,WSW,258,2.0,3.0,65,0.00,,,0.00,weatherlink.com 1.10,2013-01-30 08:09:00,
2013-01-30 01:24:00,6.1,-4.0,30.44,West,274,3.0,5.0,64,0.00,,,0.00,weatherlink.com 1.10,2013-01-30 08:24:00,
2013-01-30 01:38:00,5.4,-4.0,30.44,West,269,0.0,4.0,66,0.00,,,0.00,weatherlink.com 1.10,2013-01-30 08:38:00,
2013-01-30 01:53:00,4.5,-4.0,30.44,West,270,2.0,4.0,67,0.00,,,0.00,weatherlink.com 1.10,2013-01-30 08:53:00,
2013-01-30 02:09:00,4.7,-4.0,30.44,West,269,2.0,3.0,67,0.00,,,0.00,weatherlink.com 1.10,2013-01-30 09:09:00,
2013-01-30 02:24:00,6.1,-3.0,30.43,WSW,249,4.0,6.0,67,0.00,,,0.00,weatherlink.com 1.10,2013-01-30 09:24:00,
2013-01-30 02:39:00,8.6,-1.0,30.43,WSW,255,6.0,6.0,65,0.00,,,0.00,weatherlink.com 1.10,2013-01-30 09:39:00,
2013-01-30 02:54:00,10.5,1.0,30.42,WSW,247,3.0,4.0,66,0.00,,,0.00,weatherlink.com 1.10,2013-01-30 09:54:00,
2013-01-30 03:09:00,15.2,3.0,30.41,SSW,204,5.0,8.0,59,0.00,,,0.00,weatherlink.com 1.10,2013-01-30 10:09:00,
2013-01-30 03:24:00,18.0,3.0,30.40,SW,235,11.0,14.0,53,0.00,,,0.00,weatherlink.com 1.10,2013-01-30 10:24:00,
2013-01-30 03:39:00,17.7,4.0,30.40,SSW,212,8.0,14.0,56,0.00,,,0.00,weatherlink.com 1.10,2013-01-30 10:39:00,
2013-01-30 03:54:00,16.9,3.0,30.39,SW,221,3.0,7.0,55,0.00,,,0.00,weatherlink.com 1.10,2013-01-30 10:54:00,
2013-01-30 04:09:00,16.4,4.0,30.40,North,4,0.0,2.0,58,0.00,,,0.00,weatherlink.com 1.10,2013-01-30 11:09:00,
2013-01-30 04:24:00,14.8,5.0,30.39,SSW,206,1.0,4.0,64,0.00,,,0.00,weatherlink.com 1.10,2013-01-30 11:24:00,
2013-01-30 04:39:00,15.4,4.0,30.37,SSW,207,5.0,5.0,62,0.00,,,0.00,weatherlink.com 1.10,2013-01-30 11:39:00,
2013-01-30 04:55:00,16.9,5.0,30.36,SSW,211,1.0,4.0,61,0.00,,,0.00,weatherlink.com 1.10,2013-01-30 11:55:00,
2013-01-30 05:09:00,14.0,3.0,30.34,SW,231,4.0,5.0,62,0.00,,,0.00,weatherlink.com 1.10,2013-01-30 12:09:00,
2013-01-30 05:24:00,12.8,3.0,30.34,NE,52,1.0,5.0,66,0.00,,,0.00,weatherlink.com 1.10,2013-01-30 12:24:00,
2013-01-30 05:40:00,11.2,2.0,30.34,WSW,237,3.0,5.0,67,0.00,,,0.00,weatherlink.com 1.10,2013-01-30 12:40:00,
2013-01-30 05:55:00,12.3,3.0,30.34,WSW,256,2.0,3.0,67,0.00,,,0.00,weatherlink.com 1.10,2013-01-30 12:55:00,
2013-01-30 06:10:00,11.4,3.0,30.34,SW,226,4.0,8.0,69,0.00,,,0.00,weatherlink.com 1.10,2013-01-30 13:10:00,
2013-01-30 06:25:00,12.9,4.0,30.34,WNW,283,3.0,6.0,68,0.00,,,0.00,weatherlink.com 1.10,2013-01-30 13:25:00,
2013-01-30 06:40:00,13.3,4.0,30.36,WNW,289,2.0,5.0,67,0.00,,,0.00,weatherlink.com 1.10,2013-01-30 13:40:00,
2013-01-30 06:55:00,11.4,3.0,30.36,West,280,2.0,6.0,70,0.00,,,0.00,weatherlink.com 1.10,2013-01-30 13:55:00,
2013-01-30 07:10:00,13.1,6.0,30.37,SW,224,7.0,9.0,73,0.00,,,0.00,weatherlink.com 1.10,2013-01-30 14:10:00,
2013-01-30 07:25:00,14.4,6.0,30.37,West,261,1.0,7.0,70,0.00,,,0.00,weatherlink.com 1.10,2013-01-30 14:25:00,
2013-01-30 07:40:00,15.1,7.0,30.36,SSW,210,7.0,9.0,70,0.00,,,0.00,weatherlink.com 1.10,2013-01-30 14:40:00,
2013-01-30 07:55:00,15.7,7.0,30.37,SW,228,7.0,8.0,67,0.00,,,0.00,weatherlink.com 1.10,2013-01-30 14:55:00,
2013-01-30 08:10:00,17.5,7.0,30.35,SW,214,6.0,13.0,64,0.00,,,0.00,weatherlink.com 1.10,2013-01-30 15:10:00,
2013-01-30 08:25:00,18.1,7.0,30.35,SW,223,9.0,9.0,63,0.00,,,0.00,weatherlink.com 1.10,2013-01-30 15:25:00,
2013-01-30 08:40:00,19.2,8.0,30.35,NW,316,2.0,6.0,63,0.00,,,0.00,weatherlink.com 1.10,2013-01-30 15:40:00,
2013-01-30 08:55:00,17.7,7.0,30.35,SW,216,6.0,7.0,64,0.00,,,0.00,weatherlink.com 1.10,2013-01-30 15:55:00,
2013-01-30 09:11:00,19.7,8.0,30.34,SSW,193,6.0,9.0,61,0.00,,,0.00,weatherlink.com 1.10,2013-01-30 16:11:00,
2013-01-30 09:26:00,20.5,9.0,30.35,WSW,242,0.0,4.0,61,0.00,,,0.00,weatherlink.com 1.10,2013-01-30 16:26:00,
2013-01-30 09:41:00,21.1,10.0,30.35,WSW,242,0.0,2.0,62,0.00,,,0.00,weatherlink.com 1.10,2013-01-30 16:41:00,
2013-01-30 09:56:00,21.1,10.0,30.36,WSW,242,5.0,7.0,63,0.00,,,0.00,weatherlink.com 1.10,2013-01-30 16:56:00,
2013-01-30 10:14:00,22.7,12.0,30.36,SW,229,0.0,2.0,63,0.00,,,0.00,weatherlink.com 1.10,2013-01-30 17:14:00,
2013-01-30 10:26:00,25.1,13.0,30.36,SW,225,5.0,9.0,61,0.00,,,0.00,weatherlink.com 1.10,2013-01-30 17:26:00,
2013-01-30 10:41:00,27.6,14.0,30.35,SSW,203,7.0,10.0,56,0.00,,,0.00,weatherlink.com 1.10,2013-01-30 17:41:00,
2013-01-30 10:56:00,27.5,13.0,30.36,East,89,5.0,10.0,55,0.01,,,0.01,weatherlink.com 1.10,2013-01-30 17:56:00,
2013-01-30 11:11:00,29.8,14.0,30.35,SSW,212,1.0,5.0,53,0.02,,,0.02,weatherlink.com 1.10,2013-01-30 18:11:00,
2013-01-30 11:26:00,31.6,15.0,30.35,SSW,212,0.0,3.0,50,0.03,,,0.03,weatherlink.com 1.10,2013-01-30 18:26:00,
2013-01-30 11:41:00,31.8,16.0,30.35,ESE,107,2.0,4.0,53,0.03,,,0.03,weatherlink.com 1.10,2013-01-30 18:41:00,
2013-01-30 11:57:00,32.4,16.0,30.34,ESE,106,0.0,2.0,52,0.03,,,0.04,weatherlink.com 1.10,2013-01-30 18:57:00,
2013-01-30 12:11:00,33.7,14.0,30.34,WSW,240,4.0,4.0,44,0.03,,,0.05,weatherlink.com 1.10,2013-01-30 19:11:00,
2013-01-30 12:26:00,33.5,16.0,30.33,SSW,208,4.0,7.0,49,0.03,,,0.06,weatherlink.com 1.10,2013-01-30 19:26:00,
2013-01-30 12:42:00,33.4,15.0,30.32,SSW,201,4.0,5.0,46,0.03,,,0.06,weatherlink.com 1.10,2013-01-30 19:42:00,
2013-01-30 12:57:00,34.0,16.0,30.32,SW,218,0.0,2.0,48,0.02,,,0.06,weatherlink.com 1.10,2013-01-30 19:57:00,
2013-01-30 13:12:00,33.4,17.0,30.32,SSW,195,1.0,4.0,51,0.01,,,0.06,weatherlink.com 1.10,2013-01-30 20:12:00,
2013-01-30 13:27:00,34.1,18.0,30.31,East,96,2.0,7.0,52,0.00,,,0.06,weatherlink.com 1.10,2013-01-30 20:27:00,
2013-01-30 13:42:00,32.8,19.0,30.31,NE,55,2.0,8.0,56,0.01,,,0.07,weatherlink.com 1.10,2013-01-30 20:42:00,
2013-01-30 13:57:00,33.2,20.0,30.30,ENE,68,0.0,4.0,58,0.01,,,0.07,weatherlink.com 1.10,2013-01-30 20:57:00,
2013-01-30 14:12:00,36.8,18.0,30.29,ENE,68,0.0,3.0,47,0.01,,,0.07,weatherlink.com 1.10,2013-01-30 21:12:00,
2013-01-30 14:42:00,39.2,18.0,30.30,NE,37,4.0,17.0,42,0.00,,,0.07,weatherlink.com 1.10,2013-01-30 21:42:00,
2013-01-30 14:58:00,39.8,16.0,30.29,North,4,2.0,13.0,38,0.00,,,0.07,weatherlink.com 1.10,2013-01-30 21:58:00,
2013-01-30 15:13:00,39.5,14.0,30.30,NW,310,7.0,25.0,35,0.00,,,0.07,weatherlink.com 1.10,2013-01-30 22:13:00,
2013-01-30 15:28:00,39.5,14.0,30.29,NNW,335,8.0,24.0,36,0.00,,,0.07,weatherlink.com 1.10,2013-01-30 22:28:00,
2013-01-30 15:43:00,40.3,12.0,30.29,NNW,327,11.0,24.0,32,0.00,,,0.07,weatherlink.com 1.10,2013-01-30 22:43:00,
2013-01-30 15:58:00,40.8,13.0,30.29,NNW,330,21.0,24.0,32,0.00,,,0.07,weatherlink.com 1.10,2013-01-30 22:58:00,
2013-01-30 16:13:00,40.5,10.0,30.28,WNW,295,10.0,20.0,29,0.00,,,0.07,weatherlink.com 1.10,2013-01-30 23:13:00,
2013-01-30 16:28:00,39.2,13.0,30.28,NNW,334,6.0,14.0,34,0.00,,,0.07,weatherlink.com 1.10,2013-01-30 23:28:00,
2013-01-30 16:43:00,39.1,15.0,30.28,NW,320,0.0,8.0,37,0.00,,,0.07,weatherlink.com 1.10,2013-01-30 23:43:00,
2013-01-30 16:58:00,36.9,13.0,30.28,NNE,13,3.0,10.0,38,0.00,,,0.07,weatherlink.com 1.10,2013-01-30 23:58:00,
2013-01-30 17:13:00,33.8,13.0,30.28,West,272,1.0,6.0,42,0.00,,,0.07,weatherlink.com 1.10,2013-01-31 00:13:00,
2013-01-30 17:28:00,30.3,13.0,30.29,SW,216,5.0,7.0,48,0.00,,,0.07,weatherlink.com 1.10,2013-01-31 00:28:00,
2013-01-30 17:43:00,27.8,12.0,30.29,SW,235,5.0,8.0,52,0.00,,,0.07,weatherlink.com 1.10,2013-01-31 00:43:00,
2013-01-30 17:58:00,27.3,11.0,30.29,WSW,258,6.0,7.0,51,0.00,,,0.07,weatherlink.com 1.10,2013-01-31 00:58:00,
2013-01-30 18:13:00,26.3,11.0,30.30,WSW,246,5.0,5.0,53,0.00,,,0.07,weatherlink.com 1.10,2013-01-31 01:13:00,
2013-01-30 18:43:00,25.1,12.0,30.30,West,261,4.0,6.0,57,0.00,,,0.07,weatherlink.com 1.10,2013-01-31 01:43:00,
2013-01-30 18:58:00,24.7,11.0,30.31,West,273,2.0,6.0,57,0.00,,,0.07,weatherlink.com 1.10,2013-01-31 01:58:00,
2013-01-30 19:13:00,24.2,11.0,30.31,WSW,253,1.0,3.0,58,0.00,,,0.07,weatherlink.com 1.10,2013-01-31 02:13:00,
2013-01-30 19:29:00,24.5,11.0,30.31,WSW,253,4.0,4.0,56,0.00,,,0.07,weatherlink.com 1.10,2013-01-31 02:29:00,
2013-01-30 19:44:00,25.0,12.0,30.31,West,265,0.0,4.0,57,0.00,,,0.07,weatherlink.com 1.10,2013-01-31 02:44:00,
2013-01-30 19:59:00,25.0,11.0,30.31,SSW,213,1.0,3.0,56,0.00,,,0.07,weatherlink.com 1.10,2013-01-31 02:59:00,
2013-01-30 20:14:00,25.7,12.0,30.31,WSW,245,4.0,5.0,56,0.00,,,0.07,weatherlink.com 1.10,2013-01-31 03:14:00,
2013-01-30 20:29:00,25.3,12.0,30.31,West,272,4.0,5.0,57,0.00,,,0.07,weatherlink.com 1.10,2013-01-31 03:29:00,
2013-01-30 20:44:00,24.1,11.0,30.32,SW,232,0.0,4.0,58,0.00,,,0.07,weatherlink.com 1.10,2013-01-31 03:44:00,
2013-01-30 20:59:00,22.9,11.0,30.32,SW,232,0.0,3.0,60,0.00,,,0.07,weatherlink.com 1.10,2013-01-31 03:59:00,
2013-01-30 21:14:00,21.1,10.0,30.32,SW,232,0.0,4.0,62,0.00,,,0.07,weatherlink.com 1.10,2013-01-31 04:14:00,
2013-01-30 21:29:00,20.8,10.0,30.32,West,266,2.0,5.0,63,0.00,,,0.07,weatherlink.com 1.10,2013-01-31 04:29:00,
2013-01-30 21:44:00,20.0,9.0,30.30,SW,222,1.0,4.0,63,0.00,,,0.07,weatherlink.com 1.10,2013-01-31 04:44:00,
2013-01-30 22:00:00,19.9,10.0,30.31,SW,222,3.0,4.0,65,0.00,,,0.07,weatherlink.com 1.10,2013-01-31 05:00:00,
2013-01-30 22:15:00,21.4,11.0,30.33,SW,222,2.0,4.0,63,0.00,,,0.07,weatherlink.com 1.10,2013-01-31 05:15:00,
2013-01-30 22:29:00,22.1,12.0,30.34,West,274,1.0,4.0,64,0.00,,,0.07,weatherlink.com 1.10,2013-01-31 05:29:00,
2013-01-30 22:45:00,22.9,12.0,30.34,WSW,243,3.0,7.0,63,0.00,,,0.07,weatherlink.com 1.10,2013-01-31 05:45:00,
2013-01-30 23:00:00,22.7,12.0,30.34,SW,226,2.0,6.0,64,0.00,,,0.07,weatherlink.com 1.10,2013-01-31 06:00:00,
2013-01-30 23:15:00,22.9,12.0,30.35,SW,226,3.0,4.0,63,0.00,,,0.07,weatherlink.com 1.10,2013-01-31 06:15:00,
2013-01-30 23:30:00,22.4,13.0,30.35,SW,226,2.0,4.0,66,0.00,,,0.07,weatherlink.com 1.10,2013-01-31 06:30:00,
2013-01-30 23:45:00,23.2,13.0,30.35,SW,226,1.0,3.0,66,0.00,,,0.07,weatherlink.com 1.10,2013-01-31 06:45:00,